sensor_id;sensor_type;location;lat;lon;timestamp;temperature;humidity
10883;DHT22;5494;51.796;10.952;2023-03-08T00:01:20;0.20;99.90
10883;DHT22;5494;51.796;10.952;2023-03-08T00:03:54;0.20;99.90
10883;DHT22;5494;51.796;10.952;2023-03-08T00:06:25;0.10;99.90
10883;DHT22;5494;51.796;10.952;2023-03-08T00:08:55;0.10;99.90
10883;DHT22;5494;51.796;10.952;2023-03-08T00:11:24;0.00;99.90
10883;DHT22;5494;51.796;10.952;2023-03-08T00:13:53;0.00;99.90
10883;DHT22;5494;51.796;10.952;2023-03-08T00:16:21;0.00;99.90
10883;DHT22;5494;51.796;10.952;2023-03-08T00:18:50;0.00;99.90
10883;DHT22;5494;51.796;10.952;2023-03-08T00:21:19;0.00;99.90
10883;DHT22;5494;51.796;10.952;2023-03-08T00:23:50;-0.10;99.90
10883;DHT22;5494;51.796;10.952;2023-03-08T00:26:18;-0.10;99.90
10883;DHT22;5494;51.796;10.952;2023-03-08T00:28:46;-0.10;99.90
10883;DHT22;5494;51.796;10.952;2023-03-08T00:31:14;-0.10;99.90
10883;DHT22;5494;51.796;10.952;2023-03-08T00:33:43;-0.10;99.90
10883;DHT22;5494;51.796;10.952;2023-03-08T00:36:14;-0.10;99.90
10883;DHT22;5494;51.796;10.952;2023-03-08T00:38:46;0.00;99.90
10883;DHT22;5494;51.796;10.952;2023-03-08T00:41:16;0.10;99.90
10883;DHT22;5494;51.796;10.952;2023-03-08T00:43:45;0.10;99.90
10883;DHT22;5494;51.796;10.952;2023-03-08T00:46:13;0.10;99.90
10883;DHT22;5494;51.796;10.952;2023-03-08T00:48:42;0.10;99.90
10883;DHT22;5494;51.796;10.952;2023-03-08T00:51:12;0.10;99.90
10883;DHT22;5494;51.796;10.952;2023-03-08T00:53:41;0.10;99.90
10883;DHT22;5494;51.796;10.952;2023-03-08T00:56:11;0.10;99.90
10883;DHT22;5494;51.796;10.952;2023-03-08T00:58:40;0.00;99.90
10883;DHT22;5494;51.796;10.952;2023-03-08T01:01:13;0.00;99.90
10883;DHT22;5494;51.796;10.952;2023-03-08T01:03:46;-0.10;99.90
10883;DHT22;5494;51.796;10.952;2023-03-08T01:06:15;-0.10;99.90
10883;DHT22;5494;51.796;10.952;2023-03-08T01:08:43;-0.10;99.90
10883;DHT22;5494;51.796;10.952;2023-03-08T01:11:16;-0.10;99.90
10883;DHT22;5494;51.796;10.952;2023-03-08T01:13:46;0.00;99.90
10883;DHT22;5494;51.796;10.952;2023-03-08T01:16:17;0.00;99.90
10883;DHT22;5494;51.796;10.952;2023-03-08T01:18:48;0.00;99.90
10883;DHT22;5494;51.796;10.952;2023-03-08T01:21:18;-0.10;99.90
10883;DHT22;5494;51.796;10.952;2023-03-08T01:23:47;-0.10;99.90
10883;DHT22;5494;51.796;10.952;2023-03-08T01:26:18;-0.10;99.90
10883;DHT22;5494;51.796;10.952;2023-03-08T01:28:48;-0.10;99.90
10883;DHT22;5494;51.796;10.952;2023-03-08T01:31:18;-0.10;99.90
10883;DHT22;5494;51.796;10.952;2023-03-08T01:33:50;-0.10;99.90
10883;DHT22;5494;51.796;10.952;2023-03-08T01:36:20;-0.20;99.90
10883;DHT22;5494;51.796;10.952;2023-03-08T01:38:49;-0.20;99.90
10883;DHT22;5494;51.796;10.952;2023-03-08T01:41:22;-0.30;99.90
10883;DHT22;5494;51.796;10.952;2023-03-08T01:43:51;-0.30;99.90
10883;DHT22;5494;51.796;10.952;2023-03-08T01:46:26;-0.30;99.90
10883;DHT22;5494;51.796;10.952;2023-03-08T01:49:04;-0.30;99.90
10883;DHT22;5494;51.796;10.952;2023-03-08T01:51:37;-0.30;99.90
10883;DHT22;5494;51.796;10.952;2023-03-08T01:54:10;-0.40;99.90
10883;DHT22;5494;51.796;10.952;2023-03-08T01:56:46;-0.40;99.90
10883;DHT22;5494;51.796;10.952;2023-03-08T01:59:17;-0.40;99.90
10883;DHT22;5494;51.796;10.952;2023-03-08T02:01:48;-0.50;99.90
10883;DHT22;5494;51.796;10.952;2023-03-08T02:04:17;-0.40;99.90
10883;DHT22;5494;51.796;10.952;2023-03-08T02:06:46;-0.50;99.90
10883;DHT22;5494;51.796;10.952;2023-03-08T02:09:19;-0.50;99.90
10883;DHT22;5494;51.796;10.952;2023-03-08T02:11:49;-0.50;99.90
10883;DHT22;5494;51.796;10.952;2023-03-08T02:14:18;-0.50;99.90
10883;DHT22;5494;51.796;10.952;2023-03-08T02:16:49;-0.30;99.90
10883;DHT22;5494;51.796;10.952;2023-03-08T02:19:21;-0.30;99.90
10883;DHT22;5494;51.796;10.952;2023-03-08T02:21:53;-0.20;99.90
10883;DHT22;5494;51.796;10.952;2023-03-08T02:24:23;-0.10;99.90
10883;DHT22;5494;51.796;10.952;2023-03-08T02:26:55;-0.10;99.90
10883;DHT22;5494;51.796;10.952;2023-03-08T02:29:28;0.00;99.90
10883;DHT22;5494;51.796;10.952;2023-03-08T02:31:56;0.10;99.90
10883;DHT22;5494;51.796;10.952;2023-03-08T02:34:24;0.00;99.90
10883;DHT22;5494;51.796;10.952;2023-03-08T02:36:53;0.50;99.90
10883;DHT22;5494;51.796;10.952;2023-03-08T02:39:22;0.10;99.90
10883;DHT22;5494;51.796;10.952;2023-03-08T02:41:50;0.10;99.90
10883;DHT22;5494;51.796;10.952;2023-03-08T02:44:20;0.00;99.90
10883;DHT22;5494;51.796;10.952;2023-03-08T02:46:51;0.00;99.90
10883;DHT22;5494;51.796;10.952;2023-03-08T02:49:20;0.00;99.90
10883;DHT22;5494;51.796;10.952;2023-03-08T02:51:48;0.00;99.90
10883;DHT22;5494;51.796;10.952;2023-03-08T02:54:15;0.00;99.90
10883;DHT22;5494;51.796;10.952;2023-03-08T02:56:45;0.00;99.90
10883;DHT22;5494;51.796;10.952;2023-03-08T02:59:13;0.00;99.90
10883;DHT22;5494;51.796;10.952;2023-03-08T03:01:43;0.00;99.90
10883;DHT22;5494;51.796;10.952;2023-03-08T03:04:11;0.10;99.90
10883;DHT22;5494;51.796;10.952;2023-03-08T03:06:39;0.20;99.90
10883;DHT22;5494;51.796;10.952;2023-03-08T03:09:08;0.20;99.90
10883;DHT22;5494;51.796;10.952;2023-03-08T03:11:39;0.30;99.90
10883;DHT22;5494;51.796;10.952;2023-03-08T03:14:10;0.40;99.90
10883;DHT22;5494;51.796;10.952;2023-03-08T03:16:41;0.40;99.90
10883;DHT22;5494;51.796;10.952;2023-03-08T03:19:10;0.50;99.90
10883;DHT22;5494;51.796;10.952;2023-03-08T03:21:39;0.50;99.90
10883;DHT22;5494;51.796;10.952;2023-03-08T03:24:07;0.60;99.90
10883;DHT22;5494;51.796;10.952;2023-03-08T03:26:44;0.60;99.90
10883;DHT22;5494;51.796;10.952;2023-03-08T03:29:14;0.70;99.90
10883;DHT22;5494;51.796;10.952;2023-03-08T03:31:43;0.80;99.90
10883;DHT22;5494;51.796;10.952;2023-03-08T03:34:12;0.80;99.90
10883;DHT22;5494;51.796;10.952;2023-03-08T03:36:41;0.80;99.90
10883;DHT22;5494;51.796;10.952;2023-03-08T03:39:10;0.90;99.90
10883;DHT22;5494;51.796;10.952;2023-03-08T03:41:39;0.90;99.90
10883;DHT22;5494;51.796;10.952;2023-03-08T03:44:10;0.90;99.90
10883;DHT22;5494;51.796;10.952;2023-03-08T03:46:42;0.90;99.90
10883;DHT22;5494;51.796;10.952;2023-03-08T03:49:12;0.90;99.90
10883;DHT22;5494;51.796;10.952;2023-03-08T03:51:43;0.90;99.90
10883;DHT22;5494;51.796;10.952;2023-03-08T03:54:20;0.90;99.90
10883;DHT22;5494;51.796;10.952;2023-03-08T03:56:48;0.90;99.90
10883;DHT22;5494;51.796;10.952;2023-03-08T03:59:23;1.00;99.90
10883;DHT22;5494;51.796;10.952;2023-03-08T04:01:54;1.00;99.90
10883;DHT22;5494;51.796;10.952;2023-03-08T04:04:31;1.00;99.90
10883;DHT22;5494;51.796;10.952;2023-03-08T04:06:59;1.00;99.90
10883;DHT22;5494;51.796;10.952;2023-03-08T04:09:32;1.00;99.90
10883;DHT22;5494;51.796;10.952;2023-03-08T04:12:10;1.10;99.90
10883;DHT22;5494;51.796;10.952;2023-03-08T04:14:38;1.10;99.90
10883;DHT22;5494;51.796;10.952;2023-03-08T04:17:10;1.10;99.90
10883;DHT22;5494;51.796;10.952;2023-03-08T04:19:47;1.10;99.90
10883;DHT22;5494;51.796;10.952;2023-03-08T04:22:16;1.00;99.90
10883;DHT22;5494;51.796;10.952;2023-03-08T04:24:51;1.00;99.90
10883;DHT22;5494;51.796;10.952;2023-03-08T04:27:26;1.10;99.90
10883;DHT22;5494;51.796;10.952;2023-03-08T04:29:54;1.00;99.90
10883;DHT22;5494;51.796;10.952;2023-03-08T04:32:24;1.00;99.90
10883;DHT22;5494;51.796;10.952;2023-03-08T04:34:55;1.00;99.90
10883;DHT22;5494;51.796;10.952;2023-03-08T04:37:26;0.90;99.90
10883;DHT22;5494;51.796;10.952;2023-03-08T04:40:03;0.80;99.90
10883;DHT22;5494;51.796;10.952;2023-03-08T04:42:39;0.70;99.90
10883;DHT22;5494;51.796;10.952;2023-03-08T04:45:10;0.80;99.90
10883;DHT22;5494;51.796;10.952;2023-03-08T04:47:40;0.70;99.90
10883;DHT22;5494;51.796;10.952;2023-03-08T04:50:10;0.70;99.90
10883;DHT22;5494;51.796;10.952;2023-03-08T04:52:39;0.60;99.90
10883;DHT22;5494;51.796;10.952;2023-03-08T04:55:07;0.60;99.90
10883;DHT22;5494;51.796;10.952;2023-03-08T04:57:36;0.60;99.90
10883;DHT22;5494;51.796;10.952;2023-03-08T05:00:05;0.50;99.90
10883;DHT22;5494;51.796;10.952;2023-03-08T05:02:37;-0.90;99.90
10883;DHT22;5494;51.796;10.952;2023-03-08T05:05:12;0.50;99.90
10883;DHT22;5494;51.796;10.952;2023-03-08T05:07:41;0.50;99.90
10883;DHT22;5494;51.796;10.952;2023-03-08T05:10:09;0.50;99.90
10883;DHT22;5494;51.796;10.952;2023-03-08T05:12:39;0.50;99.90
10883;DHT22;5494;51.796;10.952;2023-03-08T05:15:08;0.40;99.90
10883;DHT22;5494;51.796;10.952;2023-03-08T05:17:37;0.40;99.90
10883;DHT22;5494;51.796;10.952;2023-03-08T05:20:08;-1.10;99.90
10883;DHT22;5494;51.796;10.952;2023-03-08T05:22:39;0.40;99.90
10883;DHT22;5494;51.796;10.952;2023-03-08T05:25:28;0.40;99.90
10883;DHT22;5494;51.796;10.952;2023-03-08T05:27:57;0.30;99.90
10883;DHT22;5494;51.796;10.952;2023-03-08T05:30:25;0.30;99.90
10883;DHT22;5494;51.796;10.952;2023-03-08T05:32:54;0.30;99.90
10883;DHT22;5494;51.796;10.952;2023-03-08T05:35:24;0.30;99.90
10883;DHT22;5494;51.796;10.952;2023-03-08T05:37:51;0.30;99.90
10883;DHT22;5494;51.796;10.952;2023-03-08T05:40:19;-1.10;99.90
10883;DHT22;5494;51.796;10.952;2023-03-08T05:42:48;0.30;99.90
10883;DHT22;5494;51.796;10.952;2023-03-08T05:45:17;0.30;99.90
10883;DHT22;5494;51.796;10.952;2023-03-08T05:47:45;0.20;99.90
10883;DHT22;5494;51.796;10.952;2023-03-08T05:50:13;0.20;99.90
10883;DHT22;5494;51.796;10.952;2023-03-08T05:52:43;0.10;99.90
10883;DHT22;5494;51.796;10.952;2023-03-08T05:55:17;0.10;99.90
10883;DHT22;5494;51.796;10.952;2023-03-08T05:57:46;0.10;99.90
10883;DHT22;5494;51.796;10.952;2023-03-08T06:00:15;0.10;99.90
10883;DHT22;5494;51.796;10.952;2023-03-08T06:02:49;0.10;99.90
10883;DHT22;5494;51.796;10.952;2023-03-08T06:05:18;0.20;99.90
10883;DHT22;5494;51.796;10.952;2023-03-08T06:07:50;0.30;99.90
10883;DHT22;5494;51.796;10.952;2023-03-08T06:10:18;0.30;99.90
10883;DHT22;5494;51.796;10.952;2023-03-08T06:12:46;0.40;99.90
10883;DHT22;5494;51.796;10.952;2023-03-08T06:15:16;1.00;99.90
10883;DHT22;5494;51.796;10.952;2023-03-08T06:17:44;0.40;99.90
10883;DHT22;5494;51.796;10.952;2023-03-08T06:20:16;0.40;99.90
10883;DHT22;5494;51.796;10.952;2023-03-08T06:22:49;0.50;99.90
10883;DHT22;5494;51.796;10.952;2023-03-08T06:25:18;0.50;99.90
10883;DHT22;5494;51.796;10.952;2023-03-08T06:27:46;0.60;99.90
10883;DHT22;5494;51.796;10.952;2023-03-08T06:30:27;0.60;99.90
10883;DHT22;5494;51.796;10.952;2023-03-08T06:32:56;0.60;99.90
10883;DHT22;5494;51.796;10.952;2023-03-08T06:35:24;0.70;99.90
10883;DHT22;5494;51.796;10.952;2023-03-08T06:37:57;0.80;99.90
10883;DHT22;5494;51.796;10.952;2023-03-08T06:40:25;0.90;99.90
10883;DHT22;5494;51.796;10.952;2023-03-08T06:42:56;1.00;99.90
10883;DHT22;5494;51.796;10.952;2023-03-08T06:45:27;1.10;99.90
10883;DHT22;5494;51.796;10.952;2023-03-08T06:47:55;1.10;99.90
10883;DHT22;5494;51.796;10.952;2023-03-08T06:50:23;1.20;99.90
10883;DHT22;5494;51.796;10.952;2023-03-08T06:52:53;1.30;99.90
10883;DHT22;5494;51.796;10.952;2023-03-08T06:55:36;1.40;99.90
10883;DHT22;5494;51.796;10.952;2023-03-08T06:58:05;1.50;99.90
10883;DHT22;5494;51.796;10.952;2023-03-08T07:00:34;1.50;99.90
10883;DHT22;5494;51.796;10.952;2023-03-08T07:03:02;1.60;99.90
10883;DHT22;5494;51.796;10.952;2023-03-08T07:05:30;1.70;99.90
10883;DHT22;5494;51.796;10.952;2023-03-08T07:07:58;1.70;99.90
10883;DHT22;5494;51.796;10.952;2023-03-08T07:10:26;1.80;99.90
10883;DHT22;5494;51.796;10.952;2023-03-08T07:12:56;1.90;99.90
10883;DHT22;5494;51.796;10.952;2023-03-08T07:15:25;1.90;99.90
10883;DHT22;5494;51.796;10.952;2023-03-08T07:17:54;2.00;99.90
10883;DHT22;5494;51.796;10.952;2023-03-08T07:20:25;2.20;99.90
10883;DHT22;5494;51.796;10.952;2023-03-08T07:22:53;2.30;99.90
10883;DHT22;5494;51.796;10.952;2023-03-08T07:25:22;2.40;99.90
10883;DHT22;5494;51.796;10.952;2023-03-08T07:27:50;2.50;99.90
10883;DHT22;5494;51.796;10.952;2023-03-08T07:30:20;2.50;99.90
10883;DHT22;5494;51.796;10.952;2023-03-08T07:32:47;2.70;99.90
10883;DHT22;5494;51.796;10.952;2023-03-08T07:35:16;2.80;99.90
10883;DHT22;5494;51.796;10.952;2023-03-08T07:37:44;2.90;99.90
10883;DHT22;5494;51.796;10.952;2023-03-08T07:40:15;2.90;99.90
10883;DHT22;5494;51.796;10.952;2023-03-08T07:42:44;3.00;99.90
10883;DHT22;5494;51.796;10.952;2023-03-08T07:45:42;3.10;99.90
10883;DHT22;5494;51.796;10.952;2023-03-08T07:48:10;3.10;99.90
10883;DHT22;5494;51.796;10.952;2023-03-08T07:50:38;3.20;99.90
10883;DHT22;5494;51.796;10.952;2023-03-08T07:53:07;3.10;99.90
10883;DHT22;5494;51.796;10.952;2023-03-08T07:55:35;3.30;99.90
10883;DHT22;5494;51.796;10.952;2023-03-08T07:58:04;3.40;99.90
10883;DHT22;5494;51.796;10.952;2023-03-08T08:00:32;3.30;99.90
10883;DHT22;5494;51.796;10.952;2023-03-08T08:03:02;3.20;99.90
10883;DHT22;5494;51.796;10.952;2023-03-08T08:05:30;3.40;99.90
10883;DHT22;5494;51.796;10.952;2023-03-08T08:07:58;3.60;99.90
10883;DHT22;5494;51.796;10.952;2023-03-08T08:10:26;3.80;99.90
10883;DHT22;5494;51.796;10.952;2023-03-08T08:12:54;3.80;99.90
10883;DHT22;5494;51.796;10.952;2023-03-08T08:15:22;3.90;99.90
10883;DHT22;5494;51.796;10.952;2023-03-08T08:17:51;4.10;99.90
10883;DHT22;5494;51.796;10.952;2023-03-08T08:20:21;3.90;99.90
10883;DHT22;5494;51.796;10.952;2023-03-08T08:22:50;3.70;99.90
10883;DHT22;5494;51.796;10.952;2023-03-08T08:25:25;3.50;99.90
10883;DHT22;5494;51.796;10.952;2023-03-08T08:27:53;3.40;99.90
10883;DHT22;5494;51.796;10.952;2023-03-08T08:30:21;3.30;99.90
10883;DHT22;5494;51.796;10.952;2023-03-08T08:32:49;3.10;99.90
10883;DHT22;5494;51.796;10.952;2023-03-08T08:35:18;3.00;99.90
10883;DHT22;5494;51.796;10.952;2023-03-08T08:37:50;2.90;99.90
10883;DHT22;5494;51.796;10.952;2023-03-08T08:40:18;3.10;99.90
10883;DHT22;5494;51.796;10.952;2023-03-08T08:42:46;3.40;99.90
10883;DHT22;5494;51.796;10.952;2023-03-08T08:45:15;3.70;99.90
10883;DHT22;5494;51.796;10.952;2023-03-08T08:47:42;3.90;99.90
10883;DHT22;5494;51.796;10.952;2023-03-08T08:50:11;3.90;99.90
10883;DHT22;5494;51.796;10.952;2023-03-08T08:52:39;3.90;99.90
10883;DHT22;5494;51.796;10.952;2023-03-08T08:55:09;4.20;99.90
10883;DHT22;5494;51.796;10.952;2023-03-08T08:57:37;4.30;99.90
10883;DHT22;5494;51.796;10.952;2023-03-08T09:00:07;4.20;99.90
10883;DHT22;5494;51.796;10.952;2023-03-08T09:02:36;4.30;99.90
10883;DHT22;5494;51.796;10.952;2023-03-08T09:05:04;4.40;99.90
10883;DHT22;5494;51.796;10.952;2023-03-08T09:07:32;4.50;99.90
10883;DHT22;5494;51.796;10.952;2023-03-08T09:10:04;4.50;99.90
10883;DHT22;5494;51.796;10.952;2023-03-08T09:12:34;4.50;99.90
10883;DHT22;5494;51.796;10.952;2023-03-08T09:15:03;4.50;99.90
10883;DHT22;5494;51.796;10.952;2023-03-08T09:17:32;4.50;99.90
10883;DHT22;5494;51.796;10.952;2023-03-08T09:20:01;4.50;99.90
10883;DHT22;5494;51.796;10.952;2023-03-08T09:22:30;4.50;99.90
10883;DHT22;5494;51.796;10.952;2023-03-08T09:24:58;4.70;99.90
10883;DHT22;5494;51.796;10.952;2023-03-08T09:27:26;4.80;99.90
10883;DHT22;5494;51.796;10.952;2023-03-08T09:29:55;4.60;99.90
10883;DHT22;5494;51.796;10.952;2023-03-08T09:32:24;4.40;99.90
10883;DHT22;5494;51.796;10.952;2023-03-08T09:34:52;4.30;99.90
10883;DHT22;5494;51.796;10.952;2023-03-08T09:37:20;4.30;99.90
10883;DHT22;5494;51.796;10.952;2023-03-08T09:39:49;4.40;99.90
10883;DHT22;5494;51.796;10.952;2023-03-08T09:42:21;4.70;99.90
10883;DHT22;5494;51.796;10.952;2023-03-08T09:45:05;4.80;99.90
10883;DHT22;5494;51.796;10.952;2023-03-08T09:47:44;4.80;99.90
10883;DHT22;5494;51.796;10.952;2023-03-08T09:50:31;4.80;99.90
10883;DHT22;5494;51.796;10.952;2023-03-08T09:53:10;4.70;99.90
10883;DHT22;5494;51.796;10.952;2023-03-08T09:55:47;4.50;99.90
10883;DHT22;5494;51.796;10.952;2023-03-08T09:58:30;4.40;99.90
10883;DHT22;5494;51.796;10.952;2023-03-08T10:01:11;4.50;99.90
10883;DHT22;5494;51.796;10.952;2023-03-08T10:03:59;4.60;99.90
10883;DHT22;5494;51.796;10.952;2023-03-08T10:06:59;4.80;99.90
10883;DHT22;5494;51.796;10.952;2023-03-08T10:09:39;4.90;99.90
10883;DHT22;5494;51.796;10.952;2023-03-08T10:12:19;4.90;99.90
10883;DHT22;5494;51.796;10.952;2023-03-08T10:15:01;4.90;99.90
10883;DHT22;5494;51.796;10.952;2023-03-08T10:17:40;4.70;99.90
10883;DHT22;5494;51.796;10.952;2023-03-08T10:20:18;4.60;99.90
10883;DHT22;5494;51.796;10.952;2023-03-08T10:22:55;4.50;99.90
10883;DHT22;5494;51.796;10.952;2023-03-08T10:25:27;4.30;99.90
10883;DHT22;5494;51.796;10.952;2023-03-08T10:27:58;4.30;99.90
10883;DHT22;5494;51.796;10.952;2023-03-08T10:30:36;4.30;99.90
10883;DHT22;5494;51.796;10.952;2023-03-08T10:33:11;4.20;99.90
10883;DHT22;5494;51.796;10.952;2023-03-08T10:35:53;4.00;99.90
10883;DHT22;5494;51.796;10.952;2023-03-08T10:38:26;3.90;99.90
10883;DHT22;5494;51.796;10.952;2023-03-08T10:41:05;4.60;99.90
10883;DHT22;5494;51.796;10.952;2023-03-08T10:43:44;3.90;99.90
10883;DHT22;5494;51.796;10.952;2023-03-08T10:46:15;4.00;99.90
10883;DHT22;5494;51.796;10.952;2023-03-08T10:48:45;4.00;99.90
10883;DHT22;5494;51.796;10.952;2023-03-08T10:51:18;3.90;99.90
10883;DHT22;5494;51.796;10.952;2023-03-08T10:53:52;3.70;99.90
10883;DHT22;5494;51.796;10.952;2023-03-08T10:56:24;3.70;99.90
10883;DHT22;5494;51.796;10.952;2023-03-08T10:58:55;3.80;99.90
10883;DHT22;5494;51.796;10.952;2023-03-08T11:01:26;3.90;99.90
10883;DHT22;5494;51.796;10.952;2023-03-08T11:04:02;3.90;99.90
10883;DHT22;5494;51.796;10.952;2023-03-08T11:06:32;3.80;99.90
10883;DHT22;5494;51.796;10.952;2023-03-08T11:09:03;3.80;99.90
10883;DHT22;5494;51.796;10.952;2023-03-08T11:11:45;3.70;99.90
10883;DHT22;5494;51.796;10.952;2023-03-08T11:14:14;3.60;99.90
10883;DHT22;5494;51.796;10.952;2023-03-08T11:17:02;3.70;99.90
10883;DHT22;5494;51.796;10.952;2023-03-08T11:19:58;3.70;99.90
10883;DHT22;5494;51.796;10.952;2023-03-08T11:22:48;3.50;99.90
10883;DHT22;5494;51.796;10.952;2023-03-08T11:25:34;3.40;99.90
10883;DHT22;5494;51.796;10.952;2023-03-08T11:28:28;3.40;99.90
10883;DHT22;5494;51.796;10.952;2023-03-08T11:31:13;3.50;99.90
10883;DHT22;5494;51.796;10.952;2023-03-08T11:36:56;3.30;99.90
10883;DHT22;5494;51.796;10.952;2023-03-08T11:39:33;3.30;99.90
10883;DHT22;5494;51.796;10.952;2023-03-08T11:42:16;3.00;99.90
10883;DHT22;5494;51.796;10.952;2023-03-08T11:45:14;2.80;99.90
10883;DHT22;5494;51.796;10.952;2023-03-08T11:48:05;2.60;99.90
10883;DHT22;5494;51.796;10.952;2023-03-08T11:50:46;2.50;99.90
10883;DHT22;5494;51.796;10.952;2023-03-08T11:53:28;2.50;99.90
10883;DHT22;5494;51.796;10.952;2023-03-08T11:56:21;2.40;99.90
10883;DHT22;5494;51.796;10.952;2023-03-08T11:59:05;2.50;99.90
10883;DHT22;5494;51.796;10.952;2023-03-08T12:01:44;2.60;99.90
10883;DHT22;5494;51.796;10.952;2023-03-08T12:04:17;2.60;99.90
10883;DHT22;5494;51.796;10.952;2023-03-08T12:06:48;2.50;99.90
10883;DHT22;5494;51.796;10.952;2023-03-08T12:09:26;3.80;99.90
10883;DHT22;5494;51.796;10.952;2023-03-08T12:12:04;2.40;99.90
10883;DHT22;5494;51.796;10.952;2023-03-08T12:14:39;2.40;99.90
10883;DHT22;5494;51.796;10.952;2023-03-08T12:17:18;2.30;99.90
10883;DHT22;5494;51.796;10.952;2023-03-08T12:19:50;2.10;99.90
10883;DHT22;5494;51.796;10.952;2023-03-08T12:22:33;2.20;99.90
10883;DHT22;5494;51.796;10.952;2023-03-08T12:25:20;2.20;99.90
10883;DHT22;5494;51.796;10.952;2023-03-08T12:27:55;2.20;99.90
10883;DHT22;5494;51.796;10.952;2023-03-08T12:30:38;2.20;99.90
10883;DHT22;5494;51.796;10.952;2023-03-08T12:33:16;2.10;99.90
10883;DHT22;5494;51.796;10.952;2023-03-08T12:35:51;1.90;99.90
10883;DHT22;5494;51.796;10.952;2023-03-08T12:38:29;2.00;99.90
10883;DHT22;5494;51.796;10.952;2023-03-08T12:41:02;1.90;99.90
10883;DHT22;5494;51.796;10.952;2023-03-08T12:43:34;2.10;99.90
10883;DHT22;5494;51.796;10.952;2023-03-08T12:46:06;2.30;99.90
10883;DHT22;5494;51.796;10.952;2023-03-08T12:48:38;2.20;99.90
10883;DHT22;5494;51.796;10.952;2023-03-08T12:51:20;2.30;99.90
10883;DHT22;5494;51.796;10.952;2023-03-08T12:53:58;2.20;99.90
10883;DHT22;5494;51.796;10.952;2023-03-08T12:56:31;2.40;99.90
10883;DHT22;5494;51.796;10.952;2023-03-08T12:59:22;2.60;99.90
10883;DHT22;5494;51.796;10.952;2023-03-08T13:02:02;2.60;99.90
10883;DHT22;5494;51.796;10.952;2023-03-08T13:04:49;2.50;99.90
10883;DHT22;5494;51.796;10.952;2023-03-08T13:07:33;2.30;99.90
10883;DHT22;5494;51.796;10.952;2023-03-08T13:10:18;2.30;99.90
10883;DHT22;5494;51.796;10.952;2023-03-08T13:13:02;2.40;99.90
10883;DHT22;5494;51.796;10.952;2023-03-08T13:16:19;2.20;99.90
10883;DHT22;5494;51.796;10.952;2023-03-08T13:19:22;2.30;99.90
10883;DHT22;5494;51.796;10.952;2023-03-08T13:21:59;2.40;99.90
10883;DHT22;5494;51.796;10.952;2023-03-08T13:24:40;2.40;99.90
10883;DHT22;5494;51.796;10.952;2023-03-08T13:27:18;2.40;99.90
10883;DHT22;5494;51.796;10.952;2023-03-08T13:29:52;2.40;99.90
10883;DHT22;5494;51.796;10.952;2023-03-08T13:32:23;2.40;99.90
10883;DHT22;5494;51.796;10.952;2023-03-08T13:34:58;2.20;99.90
10883;DHT22;5494;51.796;10.952;2023-03-08T13:37:28;2.10;99.90
10883;DHT22;5494;51.796;10.952;2023-03-08T13:39:58;2.20;99.90
10883;DHT22;5494;51.796;10.952;2023-03-08T13:42:28;2.30;99.90
10883;DHT22;5494;51.796;10.952;2023-03-08T13:45:07;2.30;99.90
10883;DHT22;5494;51.796;10.952;2023-03-08T13:47:38;2.30;99.90
10883;DHT22;5494;51.796;10.952;2023-03-08T13:50:17;2.30;99.90
10883;DHT22;5494;51.796;10.952;2023-03-08T13:52:47;2.40;99.90
10883;DHT22;5494;51.796;10.952;2023-03-08T13:55:19;2.50;99.90
10883;DHT22;5494;51.796;10.952;2023-03-08T13:57:52;2.50;99.90
10883;DHT22;5494;51.796;10.952;2023-03-08T14:00:28;2.40;99.90
10883;DHT22;5494;51.796;10.952;2023-03-08T14:03:02;2.20;99.90
10883;DHT22;5494;51.796;10.952;2023-03-08T14:05:40;2.20;99.90
10883;DHT22;5494;51.796;10.952;2023-03-08T14:08:17;2.20;99.90
10883;DHT22;5494;51.796;10.952;2023-03-08T14:10:48;2.30;99.90
10883;DHT22;5494;51.796;10.952;2023-03-08T14:13:23;2.30;99.90
10883;DHT22;5494;51.796;10.952;2023-03-08T14:15:56;2.30;99.90
10883;DHT22;5494;51.796;10.952;2023-03-08T14:18:36;2.30;99.90
10883;DHT22;5494;51.796;10.952;2023-03-08T14:21:12;2.20;99.90
10883;DHT22;5494;51.796;10.952;2023-03-08T14:23:44;2.10;99.90
10883;DHT22;5494;51.796;10.952;2023-03-08T14:26:29;2.00;99.90
10883;DHT22;5494;51.796;10.952;2023-03-08T14:29:16;1.80;99.90
10883;DHT22;5494;51.796;10.952;2023-03-08T14:32:04;1.80;99.90
10883;DHT22;5494;51.796;10.952;2023-03-08T14:35:04;1.80;99.90
10883;DHT22;5494;51.796;10.952;2023-03-08T14:37:34;1.90;99.90
10883;DHT22;5494;51.796;10.952;2023-03-08T14:40:20;1.90;99.90
10883;DHT22;5494;51.796;10.952;2023-03-08T14:42:54;1.90;99.90
10883;DHT22;5494;51.796;10.952;2023-03-08T14:45:25;1.90;99.90
10883;DHT22;5494;51.796;10.952;2023-03-08T14:47:58;1.80;99.90
10883;DHT22;5494;51.796;10.952;2023-03-08T14:50:31;1.80;99.90
10883;DHT22;5494;51.796;10.952;2023-03-08T14:53:02;1.70;99.90
10883;DHT22;5494;51.796;10.952;2023-03-08T14:55:31;3.80;99.90
10883;DHT22;5494;51.796;10.952;2023-03-08T14:58:10;1.70;99.90
10883;DHT22;5494;51.796;10.952;2023-03-08T15:00:47;1.50;99.90
10883;DHT22;5494;51.796;10.952;2023-03-08T15:03:16;1.50;99.90
10883;DHT22;5494;51.796;10.952;2023-03-08T15:05:45;1.60;99.90
10883;DHT22;5494;51.796;10.952;2023-03-08T15:08:15;1.40;99.90
10883;DHT22;5494;51.796;10.952;2023-03-08T15:10:44;1.50;99.90
10883;DHT22;5494;51.796;10.952;2023-03-08T15:13:14;1.50;99.90
10883;DHT22;5494;51.796;10.952;2023-03-08T15:15:43;1.50;99.90
10883;DHT22;5494;51.796;10.952;2023-03-08T15:18:11;1.50;99.90
10883;DHT22;5494;51.796;10.952;2023-03-08T15:20:42;1.50;99.90
10883;DHT22;5494;51.796;10.952;2023-03-08T15:23:18;1.50;99.90
10883;DHT22;5494;51.796;10.952;2023-03-08T15:25:48;1.30;99.90
10883;DHT22;5494;51.796;10.952;2023-03-08T15:28:18;1.30;99.90
10883;DHT22;5494;51.796;10.952;2023-03-08T15:30:49;1.20;99.90
10883;DHT22;5494;51.796;10.952;2023-03-08T15:33:18;1.30;99.90
10883;DHT22;5494;51.796;10.952;2023-03-08T15:35:48;1.20;99.90
10883;DHT22;5494;51.796;10.952;2023-03-08T15:38:18;1.20;99.90
10883;DHT22;5494;51.796;10.952;2023-03-08T15:40:47;1.20;99.90
10883;DHT22;5494;51.796;10.952;2023-03-08T15:43:15;1.20;99.90
10883;DHT22;5494;51.796;10.952;2023-03-08T15:45:43;1.30;99.90
10883;DHT22;5494;51.796;10.952;2023-03-08T15:48:12;1.30;99.90
10883;DHT22;5494;51.796;10.952;2023-03-08T15:50:42;1.30;99.90
10883;DHT22;5494;51.796;10.952;2023-03-08T15:53:12;1.40;99.90
10883;DHT22;5494;51.796;10.952;2023-03-08T15:55:55;1.30;99.90
10883;DHT22;5494;51.796;10.952;2023-03-08T15:58:23;1.30;99.90
10883;DHT22;5494;51.796;10.952;2023-03-08T16:00:51;1.20;99.90
10883;DHT22;5494;51.796;10.952;2023-03-08T16:03:19;1.20;99.90
10883;DHT22;5494;51.796;10.952;2023-03-08T16:05:56;1.20;99.90
10883;DHT22;5494;51.796;10.952;2023-03-08T16:08:26;1.20;99.90
10883;DHT22;5494;51.796;10.952;2023-03-08T16:10:55;1.10;99.90
10883;DHT22;5494;51.796;10.952;2023-03-08T16:13:29;1.00;99.90
10883;DHT22;5494;51.796;10.952;2023-03-08T16:15:58;1.00;99.90
10883;DHT22;5494;51.796;10.952;2023-03-08T16:18:27;1.10;99.90
10883;DHT22;5494;51.796;10.952;2023-03-08T16:20:56;1.20;99.90
10883;DHT22;5494;51.796;10.952;2023-03-08T16:23:26;1.20;99.90